Ryoei Maru — JL6703 — position and weather

sailwx.info

Track history (hours):
 
Tides and Currents Weather Stations Pressure Air Temp Water Temp Dewpoint Dewpoint Depression Visibility Wind Speed Wind Dir Waves Ship Positions

Ryoei Maru

Last reported at 2016-Jun-23 19:06 UTC. Time now 2016-Jun-26 19:08 UTC.
Position N 36°03' E 140°57'.

Length 95 m; draft 5 m.

Type: Cargo ship. MMSI: 431501749.

Date/timePositionNaut miles runAvg speedWind from/ knotsBaromVisibWave heightAir tempDewpointWater temp
2016-Jun-23 19:06N 36°03' E 140°57'2111.9
2016-Jun-23 17:20N 35°42' E 140°56'1011.4
2016-Jun-23 16:28N 35°34' E 140°50'1112.4
2016-Jun-23 15:33N 35°24' E 140°42'1312.6
2016-Jun-23 14:33N 35°14' E 140°33'1412.9
2016-Jun-23 13:27N 35°03' E 140°22'1112.6
2016-Jun-23 12:33N 34°57' E 140°10'1211.7
2016-Jun-23 11:31N 34°51' E 139°58'1212.1
2016-Jun-23 10:33N 34°45' E 139°45'24111.9
2016-Jun-22 14:16N 33°60' E 134°59'912.3
2016-Jun-22 13:33N 34°09' E 134°58'1111.2
2016-Jun-22 12:32N 34°20' E 134°59'1211.8
2016-Jun-22 11:33N 34°31' E 135°03'7 7.2
2016-Jun-22 10:33N 34°37' E 134°58'6 0.3
2016-Jun-21 14:28N 34°39' E 134°50'1213.0
2016-Jun-21 13:33N 34°36' E 135°04'1312.5
2016-Jun-21 12:33N 34°37' E 135°19'5 4.5
2016-Jun-21 11:25N 34°37' E 135°26'0 0.0
2016-Jun-21 10:31N 34°37' E 135°26'0 0.0
2016-Jun-21 09:19N 34°37' E 135°26'0 0.1
2016-Jun-21 08:31N 34°37' E 135°26'0 0.0
2016-Jun-21 07:25N 34°37' E 135°26'0 0.0
2016-Jun-21 04:31N 34°37' E 135°26'0 0.0
2016-Jun-21 03:31N 34°37' E 135°26'0 0.0
2016-Jun-21 02:25N 34°37' E 135°26'0 0.0
2016-Jun-21 01:33N 34°37' E 135°26'8 7.8
2016-Jun-21 00:33N 34°33' E 135°17'1312.9
2016-Jun-20 23:33N 34°24' E 135°06'1212.0
2016-Jun-20 22:31N 34°13' E 134°59'1212.1
2016-Jun-20 21:30N 34°01' E 134°60'237 9.9
2016-Jun-19 21:33N 34°45' E 139°42'1311.3
2016-Jun-19 20:22N 34°52' E 139°57'911.1
2016-Jun-19 19:33N 34°56' E 140°06'1111.2
2016-Jun-19 18:33N 35°02' E 140°17'1110.3
2016-Jun-19 17:26N 35°09' E 140°28'  
2016-Jun-16 20:31N 35°48' E 140°57'1612.5
2016-Jun-16 19:13N 35°32' E 140°50'912.9
2016-Jun-16 18:32N 35°25' E 140°44'1313.2
2016-Jun-16 17:31N 35°15' E 140°34'1313.1
2016-Jun-16 16:33N 35°04' E 140°25'1212.3
2016-Jun-16 15:33N 34°57' E 140°13'1312.3
2016-Jun-16 14:32N 34°51' E 139°60'1312.0
2016-Jun-16 13:29N 34°46' E 139°46'24110.7
2016-Jun-15 15:05N 33°60' E 134°59'712.7
2016-Jun-15 14:33N 34°07' E 134°59'1312.9
2016-Jun-15 13:33N 34°20' E 134°59'1212.1
2016-Jun-15 12:34N 34°28' E 135°09'1212.2
2016-Jun-15 11:33N 34°36' E 135°20'5 4.1
2016-Jun-15 10:27N 34°37' E 135°26'0 0.0
2016-Jun-15 09:33N 34°37' E 135°26'0 0.0
2016-Jun-15 07:27N 34°37' E 135°26'0 0.0
2016-Jun-15 05:33N 34°37' E 135°26'0 0.0
2016-Jun-15 03:33N 34°37' E 135°26'0 0.0
2016-Jun-15 02:27N 34°37' E 135°26'6 0.9
2016-Jun-14 19:04N 34°35' E 135°18'0 0.0
2016-Jun-14 18:28N 34°35' E 135°18'0 0.0
2016-Jun-14 17:28N 34°35' E 135°18'0 0.0
2016-Jun-14 16:16N 34°35' E 135°18'0 0.0
2016-Jun-14 15:32N 34°35' E 135°18'1010.5
2016-Jun-14 14:33N 34°27' E 135°10'1212.6
2016-Jun-14 13:33N 34°18' E 135°00'  
Track history (hours):
 
Tides and Currents Weather Stations Pressure Air Temp Water Temp Dewpoint Dewpoint Depression Visibility Wind Speed Wind Dir Waves Ship Positions

Ryoei Maru

Last reported at 2016-Jun-23 19:06 UTC. Time now 2016-Jun-26 19:08 UTC.
Position N 36°03' E 140°57'.

Length 95 m; draft 5 m.

Type: Cargo ship. MMSI: 431501749.

Date/timePositionNaut miles runAvg speedWind from/ knotsBaromVisibWave heightAir tempDewpointWater temp
2016-Jun-23 19:06N 36°03' E 140°57'2111.9
2016-Jun-23 17:20N 35°42' E 140°56'1011.4
2016-Jun-23 16:28N 35°34' E 140°50'1112.4
2016-Jun-23 15:33N 35°24' E 140°42'1312.6
2016-Jun-23 14:33N 35°14' E 140°33'1412.9
2016-Jun-23 13:27N 35°03' E 140°22'1112.6
2016-Jun-23 12:33N 34°57' E 140°10'1211.7
2016-Jun-23 11:31N 34°51' E 139°58'1212.1
2016-Jun-23 10:33N 34°45' E 139°45'24111.9
2016-Jun-22 14:16N 33°60' E 134°59'912.3
2016-Jun-22 13:33N 34°09' E 134°58'1111.2
2016-Jun-22 12:32N 34°20' E 134°59'1211.8
2016-Jun-22 11:33N 34°31' E 135°03'7 7.2
2016-Jun-22 10:33N 34°37' E 134°58'6 0.3
2016-Jun-21 14:28N 34°39' E 134°50'1213.0
2016-Jun-21 13:33N 34°36' E 135°04'1312.5
2016-Jun-21 12:33N 34°37' E 135°19'5 4.5
2016-Jun-21 11:25N 34°37' E 135°26'0 0.0
2016-Jun-21 10:31N 34°37' E 135°26'0 0.0
2016-Jun-21 09:19N 34°37' E 135°26'0 0.1
2016-Jun-21 08:31N 34°37' E 135°26'0 0.0
2016-Jun-21 07:25N 34°37' E 135°26'0 0.0
2016-Jun-21 04:31N 34°37' E 135°26'0 0.0
2016-Jun-21 03:31N 34°37' E 135°26'0 0.0
2016-Jun-21 02:25N 34°37' E 135°26'0 0.0
2016-Jun-21 01:33N 34°37' E 135°26'8 7.8
2016-Jun-21 00:33N 34°33' E 135°17'1312.9
2016-Jun-20 23:33N 34°24' E 135°06'1212.0
2016-Jun-20 22:31N 34°13' E 134°59'1212.1
2016-Jun-20 21:30N 34°01' E 134°60'237 9.9
2016-Jun-19 21:33N 34°45' E 139°42'1311.3
2016-Jun-19 20:22N 34°52' E 139°57'911.1
2016-Jun-19 19:33N 34°56' E 140°06'1111.2
2016-Jun-19 18:33N 35°02' E 140°17'1110.3
2016-Jun-19 17:26N 35°09' E 140°28'  
2016-Jun-16 20:31N 35°48' E 140°57'1612.5
2016-Jun-16 19:13N 35°32' E 140°50'912.9
2016-Jun-16 18:32N 35°25' E 140°44'1313.2
2016-Jun-16 17:31N 35°15' E 140°34'1313.1
2016-Jun-16 16:33N 35°04' E 140°25'1212.3
2016-Jun-16 15:33N 34°57' E 140°13'1312.3
2016-Jun-16 14:32N 34°51' E 139°60'1312.0
2016-Jun-16 13:29N 34°46' E 139°46'24110.7
2016-Jun-15 15:05N 33°60' E 134°59'712.7
2016-Jun-15 14:33N 34°07' E 134°59'1312.9
2016-Jun-15 13:33N 34°20' E 134°59'1212.1
2016-Jun-15 12:34N 34°28' E 135°09'1212.2
2016-Jun-15 11:33N 34°36' E 135°20'5 4.1
2016-Jun-15 10:27N 34°37' E 135°26'0 0.0
2016-Jun-15 09:33N 34°37' E 135°26'0 0.0
2016-Jun-15 07:27N 34°37' E 135°26'0 0.0
2016-Jun-15 05:33N 34°37' E 135°26'0 0.0
2016-Jun-15 03:33N 34°37' E 135°26'0 0.0
2016-Jun-15 02:27N 34°37' E 135°26'6 0.9
2016-Jun-14 19:04N 34°35' E 135°18'0 0.0
2016-Jun-14 18:28N 34°35' E 135°18'0 0.0
2016-Jun-14 17:28N 34°35' E 135°18'0 0.0
2016-Jun-14 16:16N 34°35' E 135°18'0 0.0
2016-Jun-14 15:32N 34°35' E 135°18'1010.5
2016-Jun-14 14:33N 34°27' E 135°10'1212.6
2016-Jun-14 13:33N 34°18' E 135°00'  

Dump ship's entire track history